sensor_id;sensor_type;location;lat;lon;timestamp;temperature;humidity
25582;DHT22;13462;50.764;4.332;2023-09-12T00:00:57;20.10;99.90
25582;DHT22;13462;50.764;4.332;2023-09-12T00:03:23;20.10;99.90
25582;DHT22;13462;50.764;4.332;2023-09-12T00:05:53;20.20;99.90
25582;DHT22;13462;50.764;4.332;2023-09-12T00:08:19;20.30;99.90
25582;DHT22;13462;50.764;4.332;2023-09-12T00:10:45;20.50;99.90
25582;DHT22;13462;50.764;4.332;2023-09-12T00:13:10;20.30;99.90
25582;DHT22;13462;50.764;4.332;2023-09-12T00:15:36;20.20;99.90
25582;DHT22;13462;50.764;4.332;2023-09-12T00:18:02;20.10;99.90
25582;DHT22;13462;50.764;4.332;2023-09-12T00:20:28;19.90;99.90
25582;DHT22;13462;50.764;4.332;2023-09-12T00:22:54;19.90;99.90
25582;DHT22;13462;50.764;4.332;2023-09-12T00:25:20;19.90;99.90
25582;DHT22;13462;50.764;4.332;2023-09-12T00:27:46;20.00;99.90
25582;DHT22;13462;50.764;4.332;2023-09-12T00:30:14;20.00;99.90
25582;DHT22;13462;50.764;4.332;2023-09-12T00:32:39;19.90;99.90
25582;DHT22;13462;50.764;4.332;2023-09-12T00:35:05;20.20;99.90
25582;DHT22;13462;50.764;4.332;2023-09-12T00:37:31;20.30;99.90
25582;DHT22;13462;50.764;4.332;2023-09-12T00:39:57;20.40;99.90
25582;DHT22;13462;50.764;4.332;2023-09-12T00:42:25;20.50;99.90
25582;DHT22;13462;50.764;4.332;2023-09-12T00:44:52;20.40;99.90
25582;DHT22;13462;50.764;4.332;2023-09-12T00:47:18;20.30;99.90
25582;DHT22;13462;50.764;4.332;2023-09-12T00:49:44;20.20;99.90
25582;DHT22;13462;50.764;4.332;2023-09-12T00:52:11;20.00;99.90
25582;DHT22;13462;50.764;4.332;2023-09-12T00:54:38;19.90;99.90
25582;DHT22;13462;50.764;4.332;2023-09-12T00:57:04;19.80;99.90
25582;DHT22;13462;50.764;4.332;2023-09-12T00:59:30;19.70;99.90
25582;DHT22;13462;50.764;4.332;2023-09-12T01:01:56;19.60;99.90
25582;DHT22;13462;50.764;4.332;2023-09-12T01:04:22;19.60;99.90
25582;DHT22;13462;50.764;4.332;2023-09-12T01:06:48;19.50;99.90
25582;DHT22;13462;50.764;4.332;2023-09-12T01:09:14;19.60;99.90
25582;DHT22;13462;50.764;4.332;2023-09-12T01:11:40;19.60;99.90
25582;DHT22;13462;50.764;4.332;2023-09-12T01:14:06;19.60;99.90
25582;DHT22;13462;50.764;4.332;2023-09-12T01:16:32;19.70;99.90
25582;DHT22;13462;50.764;4.332;2023-09-12T01:18:58;19.70;99.90
25582;DHT22;13462;50.764;4.332;2023-09-12T01:27:28;19.50;99.90
25582;DHT22;13462;50.764;4.332;2023-09-12T01:30:02;19.60;99.90
25582;DHT22;13462;50.764;4.332;2023-09-12T01:32:29;19.50;99.90
25582;DHT22;13462;50.764;4.332;2023-09-12T01:34:55;19.40;99.90
25582;DHT22;13462;50.764;4.332;2023-09-12T01:37:20;19.40;99.90
25582;DHT22;13462;50.764;4.332;2023-09-12T01:39:46;19.40;99.90
25582;DHT22;13462;50.764;4.332;2023-09-12T01:42:16;19.40;99.90
25582;DHT22;13462;50.764;4.332;2023-09-12T01:44:44;19.30;99.90
25582;DHT22;13462;50.764;4.332;2023-09-12T01:47:11;19.30;99.90
25582;DHT22;13462;50.764;4.332;2023-09-12T01:49:40;19.40;99.90
25582;DHT22;13462;50.764;4.332;2023-09-12T01:52:07;19.50;99.90
25582;DHT22;13462;50.764;4.332;2023-09-12T01:54:34;19.60;99.90
25582;DHT22;13462;50.764;4.332;2023-09-12T01:57:00;19.90;99.90
25582;DHT22;13462;50.764;4.332;2023-09-12T01:59:27;19.90;99.90
25582;DHT22;13462;50.764;4.332;2023-09-12T02:01:53;19.90;99.90
25582;DHT22;13462;50.764;4.332;2023-09-12T02:04:19;19.90;99.90
25582;DHT22;13462;50.764;4.332;2023-09-12T02:06:44;20.00;99.90
25582;DHT22;13462;50.764;4.332;2023-09-12T02:09:10;20.10;99.90
25582;DHT22;13462;50.764;4.332;2023-09-12T02:11:36;20.20;99.90
25582;DHT22;13462;50.764;4.332;2023-09-12T02:14:01;20.30;99.90
25582;DHT22;13462;50.764;4.332;2023-09-12T02:16:28;20.30;99.90
25582;DHT22;13462;50.764;4.332;2023-09-12T02:18:54;20.40;99.90
25582;DHT22;13462;50.764;4.332;2023-09-12T02:21:20;20.50;99.90
25582;DHT22;13462;50.764;4.332;2023-09-12T02:23:45;20.50;99.90
25582;DHT22;13462;50.764;4.332;2023-09-12T02:26:11;20.50;99.90
25582;DHT22;13462;50.764;4.332;2023-09-12T02:28:37;20.50;99.90
25582;DHT22;13462;50.764;4.332;2023-09-12T02:31:02;20.50;99.90
25582;DHT22;13462;50.764;4.332;2023-09-12T02:33:28;20.40;99.90
25582;DHT22;13462;50.764;4.332;2023-09-12T02:35:53;20.50;99.90
25582;DHT22;13462;50.764;4.332;2023-09-12T02:38:19;20.40;99.90
25582;DHT22;13462;50.764;4.332;2023-09-12T02:40:45;20.30;99.90
25582;DHT22;13462;50.764;4.332;2023-09-12T02:43:10;20.30;99.90
25582;DHT22;13462;50.764;4.332;2023-09-12T02:45:36;20.30;99.90
25582;DHT22;13462;50.764;4.332;2023-09-12T02:48:01;20.40;99.90
25582;DHT22;13462;50.764;4.332;2023-09-12T02:50:27;20.50;99.90
25582;DHT22;13462;50.764;4.332;2023-09-12T02:52:53;20.50;99.90
25582;DHT22;13462;50.764;4.332;2023-09-12T02:55:18;20.60;99.90
25582;DHT22;13462;50.764;4.332;2023-09-12T02:57:44;20.60;99.90
25582;DHT22;13462;50.764;4.332;2023-09-12T03:00:10;20.50;99.90
25582;DHT22;13462;50.764;4.332;2023-09-12T03:02:37;20.40;99.90
25582;DHT22;13462;50.764;4.332;2023-09-12T03:05:02;20.40;99.90
25582;DHT22;13462;50.764;4.332;2023-09-12T03:07:29;20.30;99.90
25582;DHT22;13462;50.764;4.332;2023-09-12T03:09:55;20.30;99.90
25582;DHT22;13462;50.764;4.332;2023-09-12T03:12:21;20.20;99.90
25582;DHT22;13462;50.764;4.332;2023-09-12T03:14:46;20.40;99.90
25582;DHT22;13462;50.764;4.332;2023-09-12T03:17:12;20.40;99.90
25582;DHT22;13462;50.764;4.332;2023-09-12T03:19:37;20.30;99.90
25582;DHT22;13462;50.764;4.332;2023-09-12T03:22:03;20.20;99.90
25582;DHT22;13462;50.764;4.332;2023-09-12T03:24:29;20.10;99.90
25582;DHT22;13462;50.764;4.332;2023-09-12T03:26:55;20.10;99.90
25582;DHT22;13462;50.764;4.332;2023-09-12T03:29:21;20.20;99.90
25582;DHT22;13462;50.764;4.332;2023-09-12T03:31:46;20.10;99.90
25582;DHT22;13462;50.764;4.332;2023-09-12T03:34:12;20.10;99.90
25582;DHT22;13462;50.764;4.332;2023-09-12T03:36:38;20.10;99.90
25582;DHT22;13462;50.764;4.332;2023-09-12T03:39:04;20.10;99.90
25582;DHT22;13462;50.764;4.332;2023-09-12T03:41:34;20.00;99.90
25582;DHT22;13462;50.764;4.332;2023-09-12T03:44:00;20.10;99.90
25582;DHT22;13462;50.764;4.332;2023-09-12T03:46:26;20.10;99.90
25582;DHT22;13462;50.764;4.332;2023-09-12T03:48:51;20.10;99.90
25582;DHT22;13462;50.764;4.332;2023-09-12T03:51:17;20.10;99.90
25582;DHT22;13462;50.764;4.332;2023-09-12T03:53:42;20.20;99.90
25582;DHT22;13462;50.764;4.332;2023-09-12T03:56:08;20.20;99.90
25582;DHT22;13462;50.764;4.332;2023-09-12T03:58:38;20.20;99.90
25582;DHT22;13462;50.764;4.332;2023-09-12T04:01:03;20.20;99.90
25582;DHT22;13462;50.764;4.332;2023-09-12T04:03:29;20.10;99.90
25582;DHT22;13462;50.764;4.332;2023-09-12T04:05:54;20.00;99.90
25582;DHT22;13462;50.764;4.332;2023-09-12T04:08:20;19.90;99.90
25582;DHT22;13462;50.764;4.332;2023-09-12T04:10:46;19.70;99.90
25582;DHT22;13462;50.764;4.332;2023-09-12T04:13:11;19.70;99.90
25582;DHT22;13462;50.764;4.332;2023-09-12T04:15:37;19.70;99.90
25582;DHT22;13462;50.764;4.332;2023-09-12T04:18:04;19.90;99.90
25582;DHT22;13462;50.764;4.332;2023-09-12T04:20:29;20.00;99.90
25582;DHT22;13462;50.764;4.332;2023-09-12T04:22:55;19.90;99.90
25582;DHT22;13462;50.764;4.332;2023-09-12T04:25:20;19.90;99.90
25582;DHT22;13462;50.764;4.332;2023-09-12T04:27:46;19.90;99.90
25582;DHT22;13462;50.764;4.332;2023-09-12T04:30:12;19.80;99.90
25582;DHT22;13462;50.764;4.332;2023-09-12T04:32:38;19.70;99.90
25582;DHT22;13462;50.764;4.332;2023-09-12T04:35:04;19.70;99.90
25582;DHT22;13462;50.764;4.332;2023-09-12T04:37:29;19.70;99.90
25582;DHT22;13462;50.764;4.332;2023-09-12T04:39:55;19.70;99.90
25582;DHT22;13462;50.764;4.332;2023-09-12T04:42:21;19.70;99.90
25582;DHT22;13462;50.764;4.332;2023-09-12T04:44:47;19.80;99.90
25582;DHT22;13462;50.764;4.332;2023-09-12T04:47:13;19.80;99.90
25582;DHT22;13462;50.764;4.332;2023-09-12T04:49:39;19.60;99.90
25582;DHT22;13462;50.764;4.332;2023-09-12T04:52:05;19.50;99.90
25582;DHT22;13462;50.764;4.332;2023-09-12T04:54:31;19.60;99.90
25582;DHT22;13462;50.764;4.332;2023-09-12T04:56:57;19.60;99.90
25582;DHT22;13462;50.764;4.332;2023-09-12T04:59:23;19.60;99.90
25582;DHT22;13462;50.764;4.332;2023-09-12T05:01:49;19.50;99.90
25582;DHT22;13462;50.764;4.332;2023-09-12T05:04:16;19.50;99.90
25582;DHT22;13462;50.764;4.332;2023-09-12T05:06:41;19.30;99.90
25582;DHT22;13462;50.764;4.332;2023-09-12T05:09:07;19.20;99.90
25582;DHT22;13462;50.764;4.332;2023-09-12T05:11:34;19.10;99.90
25582;DHT22;13462;50.764;4.332;2023-09-12T05:14:00;19.00;99.90
25582;DHT22;13462;50.764;4.332;2023-09-12T05:16:28;19.00;99.90
25582;DHT22;13462;50.764;4.332;2023-09-12T05:18:54;18.90;99.90
25582;DHT22;13462;50.764;4.332;2023-09-12T05:21:20;18.90;99.90
25582;DHT22;13462;50.764;4.332;2023-09-12T05:23:46;18.80;99.90
25582;DHT22;13462;50.764;4.332;2023-09-12T05:26:11;18.90;99.90
25582;DHT22;13462;50.764;4.332;2023-09-12T05:28:37;19.10;99.90
25582;DHT22;13462;50.764;4.332;2023-09-12T05:31:03;19.00;99.90
25582;DHT22;13462;50.764;4.332;2023-09-12T05:33:29;18.90;99.90
25582;DHT22;13462;50.764;4.332;2023-09-12T05:35:54;18.80;99.90
25582;DHT22;13462;50.764;4.332;2023-09-12T05:38:20;18.70;99.90
25582;DHT22;13462;50.764;4.332;2023-09-12T05:40:46;18.70;99.90
25582;DHT22;13462;50.764;4.332;2023-09-12T05:43:11;18.70;99.90
25582;DHT22;13462;50.764;4.332;2023-09-12T05:45:37;18.70;99.90
25582;DHT22;13462;50.764;4.332;2023-09-12T05:48:03;18.70;99.90
25582;DHT22;13462;50.764;4.332;2023-09-12T05:50:30;18.70;99.90
25582;DHT22;13462;50.764;4.332;2023-09-12T05:52:55;18.70;99.90
25582;DHT22;13462;50.764;4.332;2023-09-12T05:55:21;18.90;99.90
25582;DHT22;13462;50.764;4.332;2023-09-12T05:57:48;19.00;99.90
25582;DHT22;13462;50.764;4.332;2023-09-12T06:00:17;19.20;99.90
25582;DHT22;13462;50.764;4.332;2023-09-12T06:02:43;19.50;99.90
25582;DHT22;13462;50.764;4.332;2023-09-12T06:05:09;19.50;99.90
25582;DHT22;13462;50.764;4.332;2023-09-12T06:07:35;19.80;99.90
25582;DHT22;13462;50.764;4.332;2023-09-12T06:10:01;20.20;99.90
25582;DHT22;13462;50.764;4.332;2023-09-12T06:12:26;20.70;99.90
25582;DHT22;13462;50.764;4.332;2023-09-12T06:14:52;21.10;99.90
25582;DHT22;13462;50.764;4.332;2023-09-12T06:17:20;21.70;99.90
25582;DHT22;13462;50.764;4.332;2023-09-12T06:19:47;22.30;99.90
25582;DHT22;13462;50.764;4.332;2023-09-12T06:22:14;22.60;99.90
25582;DHT22;13462;50.764;4.332;2023-09-12T06:24:40;23.00;99.90
25582;DHT22;13462;50.764;4.332;2023-09-12T06:27:06;23.50;99.90
25582;DHT22;13462;50.764;4.332;2023-09-12T06:29:32;23.50;99.90
25582;DHT22;13462;50.764;4.332;2023-09-12T06:31:57;23.30;99.90
25582;DHT22;13462;50.764;4.332;2023-09-12T06:34:23;23.60;99.90
25582;DHT22;13462;50.764;4.332;2023-09-12T06:36:49;23.70;99.90
25582;DHT22;13462;50.764;4.332;2023-09-12T06:39:14;23.40;99.90
25582;DHT22;13462;50.764;4.332;2023-09-12T06:41:40;22.70;99.90
25582;DHT22;13462;50.764;4.332;2023-09-12T06:44:06;22.20;99.90
25582;DHT22;13462;50.764;4.332;2023-09-12T06:46:32;22.20;99.90
25582;DHT22;13462;50.764;4.332;2023-09-12T06:49:01;22.50;99.90
25582;DHT22;13462;50.764;4.332;2023-09-12T06:51:28;22.30;99.90
25582;DHT22;13462;50.764;4.332;2023-09-12T06:53:53;22.00;99.90
25582;DHT22;13462;50.764;4.332;2023-09-12T06:56:19;21.70;99.90
25582;DHT22;13462;50.764;4.332;2023-09-12T06:58:45;22.00;99.90
25582;DHT22;13462;50.764;4.332;2023-09-12T07:01:10;22.30;99.90
25582;DHT22;13462;50.764;4.332;2023-09-12T07:03:36;22.10;99.90
25582;DHT22;13462;50.764;4.332;2023-09-12T07:06:03;21.80;99.90
25582;DHT22;13462;50.764;4.332;2023-09-12T07:08:32;21.80;99.90
25582;DHT22;13462;50.764;4.332;2023-09-12T07:10:58;21.80;99.90
25582;DHT22;13462;50.764;4.332;2023-09-12T07:13:31;21.90;99.90
25582;DHT22;13462;50.764;4.332;2023-09-12T07:15:57;22.00;99.90
25582;DHT22;13462;50.764;4.332;2023-09-12T07:18:22;22.30;99.90
25582;DHT22;13462;50.764;4.332;2023-09-12T07:21:00;22.80;99.90
25582;DHT22;13462;50.764;4.332;2023-09-12T07:23:26;23.40;99.90
25582;DHT22;13462;50.764;4.332;2023-09-12T07:25:51;23.90;99.90
25582;DHT22;13462;50.764;4.332;2023-09-12T07:28:18;24.60;99.90
25582;DHT22;13462;50.764;4.332;2023-09-12T07:30:45;25.40;99.90
25582;DHT22;13462;50.764;4.332;2023-09-12T07:33:11;25.70;99.90
25582;DHT22;13462;50.764;4.332;2023-09-12T07:35:37;25.50;99.90
25582;DHT22;13462;50.764;4.332;2023-09-12T07:38:03;25.50;99.90
25582;DHT22;13462;50.764;4.332;2023-09-12T07:40:28;25.40;99.90
25582;DHT22;13462;50.764;4.332;2023-09-12T07:42:55;26.70;99.90
25582;DHT22;13462;50.764;4.332;2023-09-12T07:45:20;28.70;99.90
25582;DHT22;13462;50.764;4.332;2023-09-12T07:47:46;29.60;99.90
25582;DHT22;13462;50.764;4.332;2023-09-12T07:50:12;30.30;99.90
25582;DHT22;13462;50.764;4.332;2023-09-12T07:52:38;30.20;99.90
25582;DHT22;13462;50.764;4.332;2023-09-12T07:55:04;31.10;99.90
25582;DHT22;13462;50.764;4.332;2023-09-12T07:57:30;30.80;99.90
25582;DHT22;13462;50.764;4.332;2023-09-12T07:59:56;30.20;99.90
25582;DHT22;13462;50.764;4.332;2023-09-12T08:02:22;30.10;99.90
25582;DHT22;13462;50.764;4.332;2023-09-12T08:04:49;31.10;99.60
25582;DHT22;13462;50.764;4.332;2023-09-12T08:07:16;31.40;97.10
25582;DHT22;13462;50.764;4.332;2023-09-12T08:09:55;32.20;95.70
25582;DHT22;13462;50.764;4.332;2023-09-12T08:12:23;33.60;95.00
25582;DHT22;13462;50.764;4.332;2023-09-12T08:14:48;32.20;94.90
25582;DHT22;13462;50.764;4.332;2023-09-12T08:17:15;31.40;95.40
25582;DHT22;13462;50.764;4.332;2023-09-12T08:19:41;30.30;97.90
25582;DHT22;13462;50.764;4.332;2023-09-12T08:22:08;29.80;98.70
25582;DHT22;13462;50.764;4.332;2023-09-12T08:24:35;28.70;99.90
25582;DHT22;13462;50.764;4.332;2023-09-12T08:27:01;28.50;99.90
25582;DHT22;13462;50.764;4.332;2023-09-12T08:29:30;29.10;99.90
25582;DHT22;13462;50.764;4.332;2023-09-12T08:31:57;30.50;99.90
25582;DHT22;13462;50.764;4.332;2023-09-12T08:34:23;31.70;99.00
25582;DHT22;13462;50.764;4.332;2023-09-12T08:36:49;31.90;97.70
25582;DHT22;13462;50.764;4.332;2023-09-12T08:39:17;32.70;97.30
25582;DHT22;13462;50.764;4.332;2023-09-12T08:41:43;33.60;95.40
25582;DHT22;13462;50.764;4.332;2023-09-12T08:44:12;33.70;94.00
25582;DHT22;13462;50.764;4.332;2023-09-12T08:46:40;34.60;92.50
25582;DHT22;13462;50.764;4.332;2023-09-12T08:49:07;34.40;92.50
25582;DHT22;13462;50.764;4.332;2023-09-12T08:51:33;33.90;92.80
25582;DHT22;13462;50.764;4.332;2023-09-12T08:53:58;35.00;90.90
25582;DHT22;13462;50.764;4.332;2023-09-12T08:56:25;36.10;89.10
25582;DHT22;13462;50.764;4.332;2023-09-12T08:58:51;36.60;85.60
25582;DHT22;13462;50.764;4.332;2023-09-12T09:01:18;35.50;90.10
25582;DHT22;13462;50.764;4.332;2023-09-12T09:03:44;35.70;86.80
25582;DHT22;13462;50.764;4.332;2023-09-12T09:06:12;35.80;86.30
25582;DHT22;13462;50.764;4.332;2023-09-12T09:08:39;37.10;83.40
25582;DHT22;13462;50.764;4.332;2023-09-12T09:11:06;37.90;80.10
25582;DHT22;13462;50.764;4.332;2023-09-12T09:13:34;36.70;81.20
25582;DHT22;13462;50.764;4.332;2023-09-12T09:16:16;37.30;79.90
25582;DHT22;13462;50.764;4.332;2023-09-12T09:19:04;37.20;76.50
25582;DHT22;13462;50.764;4.332;2023-09-12T09:21:37;38.00;74.20
25582;DHT22;13462;50.764;4.332;2023-09-12T09:24:13;38.40;73.30
25582;DHT22;13462;50.764;4.332;2023-09-12T09:29:13;38.40;73.10
25582;DHT22;13462;50.764;4.332;2023-09-12T09:31:41;39.70;72.50
25582;DHT22;13462;50.764;4.332;2023-09-12T09:34:14;38.40;71.40
25582;DHT22;13462;50.764;4.332;2023-09-12T09:36:46;38.70;72.90
25582;DHT22;13462;50.764;4.332;2023-09-12T09:39:12;38.50;70.70
25582;DHT22;13462;50.764;4.332;2023-09-12T09:41:38;37.80;71.50
25582;DHT22;13462;50.764;4.332;2023-09-12T09:44:08;38.70;73.90
25582;DHT22;13462;50.764;4.332;2023-09-12T09:46:38;39.70;70.70
25582;DHT22;13462;50.764;4.332;2023-09-12T09:49:04;39.70;69.90
25582;DHT22;13462;50.764;4.332;2023-09-12T09:51:31;40.10;67.50
25582;DHT22;13462;50.764;4.332;2023-09-12T09:53:57;39.30;66.80
25582;DHT22;13462;50.764;4.332;2023-09-12T09:56:24;40.00;69.00
25582;DHT22;13462;50.764;4.332;2023-09-12T09:58:55;41.10;65.70
25582;DHT22;13462;50.764;4.332;2023-09-12T10:01:22;40.90;63.40
25582;DHT22;13462;50.764;4.332;2023-09-12T10:03:49;40.60;64.90
25582;DHT22;13462;50.764;4.332;2023-09-12T10:06:16;40.30;63.30
25582;DHT22;13462;50.764;4.332;2023-09-12T10:08:44;39.50;65.60
25582;DHT22;13462;50.764;4.332;2023-09-12T10:11:14;39.10;67.50
25582;DHT22;13462;50.764;4.332;2023-09-12T10:13:53;40.10;63.60
25582;DHT22;13462;50.764;4.332;2023-09-12T10:16:23;41.00;64.30
25582;DHT22;13462;50.764;4.332;2023-09-12T10:18:59;40.80;63.50
25582;DHT22;13462;50.764;4.332;2023-09-12T10:21:30;39.90;62.30
25582;DHT22;13462;50.764;4.332;2023-09-12T10:23:58;39.00;64.50
25582;DHT22;13462;50.764;4.332;2023-09-12T10:26:24;38.20;65.10
25582;DHT22;13462;50.764;4.332;2023-09-12T10:28:51;38.10;66.00
25582;DHT22;13462;50.764;4.332;2023-09-12T10:31:17;36.80;67.10
25582;DHT22;13462;50.764;4.332;2023-09-12T10:33:44;36.90;68.60
25582;DHT22;13462;50.764;4.332;2023-09-12T10:36:12;36.10;69.80
25582;DHT22;13462;50.764;4.332;2023-09-12T10:38:42;36.70;69.50
25582;DHT22;13462;50.764;4.332;2023-09-12T10:41:13;37.60;68.10
25582;DHT22;13462;50.764;4.332;2023-09-12T10:43:41;37.60;68.30
25582;DHT22;13462;50.764;4.332;2023-09-12T10:46:08;35.80;72.30
25582;DHT22;13462;50.764;4.332;2023-09-12T10:48:35;34.50;76.10
25582;DHT22;13462;50.764;4.332;2023-09-12T10:51:01;33.20;78.10
25582;DHT22;13462;50.764;4.332;2023-09-12T10:53:30;31.80;85.80
25582;DHT22;13462;50.764;4.332;2023-09-12T10:56:17;32.40;83.80
25582;DHT22;13462;50.764;4.332;2023-09-12T11:01:30;35.70;77.80
25582;DHT22;13462;50.764;4.332;2023-09-12T11:03:56;35.70;73.10
25582;DHT22;13462;50.764;4.332;2023-09-12T11:06:29;35.00;76.80
25582;DHT22;13462;50.764;4.332;2023-09-12T11:09:22;35.40;74.70
25582;DHT22;13462;50.764;4.332;2023-09-12T11:12:02;35.60;73.40
25582;DHT22;13462;50.764;4.332;2023-09-12T11:14:28;35.40;72.80
25582;DHT22;13462;50.764;4.332;2023-09-12T11:19:44;32.80;79.80
25582;DHT22;13462;50.764;4.332;2023-09-12T11:22:24;32.50;82.00
25582;DHT22;13462;50.764;4.332;2023-09-12T11:24:50;31.80;84.50
25582;DHT22;13462;50.764;4.332;2023-09-12T11:27:16;32.20;85.40
25582;DHT22;13462;50.764;4.332;2023-09-12T11:29:42;32.40;83.20
25582;DHT22;13462;50.764;4.332;2023-09-12T11:32:08;33.40;79.70
25582;DHT22;13462;50.764;4.332;2023-09-12T11:34:42;34.10;78.60
25582;DHT22;13462;50.764;4.332;2023-09-12T11:37:08;35.50;75.60
25582;DHT22;13462;50.764;4.332;2023-09-12T11:39:35;35.90;72.00
25582;DHT22;13462;50.764;4.332;2023-09-12T11:42:03;36.30;72.20
25582;DHT22;13462;50.764;4.332;2023-09-12T11:44:30;37.50;69.70
25582;DHT22;13462;50.764;4.332;2023-09-12T11:46:58;38.50;67.90
25582;DHT22;13462;50.764;4.332;2023-09-12T11:49:35;38.70;66.20
25582;DHT22;13462;50.764;4.332;2023-09-12T11:52:01;38.70;63.70
25582;DHT22;13462;50.764;4.332;2023-09-12T11:54:27;37.70;68.00
25582;DHT22;13462;50.764;4.332;2023-09-12T11:56:54;36.30;66.50
25582;DHT22;13462;50.764;4.332;2023-09-12T11:59:31;35.20;71.20
25582;DHT22;13462;50.764;4.332;2023-09-12T12:01:57;35.80;69.20
25582;DHT22;13462;50.764;4.332;2023-09-12T12:04:24;35.30;69.90
25582;DHT22;13462;50.764;4.332;2023-09-12T12:06:53;34.40;73.40
25582;DHT22;13462;50.764;4.332;2023-09-12T12:09:19;34.00;75.70
25582;DHT22;13462;50.764;4.332;2023-09-12T12:11:45;34.10;72.90
25582;DHT22;13462;50.764;4.332;2023-09-12T12:14:13;35.20;72.70
25582;DHT22;13462;50.764;4.332;2023-09-12T12:16:41;35.50;71.60
25582;DHT22;13462;50.764;4.332;2023-09-12T12:19:07;34.20;73.10
25582;DHT22;13462;50.764;4.332;2023-09-12T12:21:32;34.60;75.40
25582;DHT22;13462;50.764;4.332;2023-09-12T12:24:00;35.90;71.40
25582;DHT22;13462;50.764;4.332;2023-09-12T12:26:25;37.00;68.30
25582;DHT22;13462;50.764;4.332;2023-09-12T12:28:52;36.30;69.20
25582;DHT22;13462;50.764;4.332;2023-09-12T12:31:18;34.10;74.30
25582;DHT22;13462;50.764;4.332;2023-09-12T12:33:53;32.00;80.30
25582;DHT22;13462;50.764;4.332;2023-09-12T12:36:19;30.80;85.30
25582;DHT22;13462;50.764;4.332;2023-09-12T12:38:46;30.60;87.90
25582;DHT22;13462;50.764;4.332;2023-09-12T12:41:14;29.80;89.10
25582;DHT22;13462;50.764;4.332;2023-09-12T12:43:41;29.80;90.90
25582;DHT22;13462;50.764;4.332;2023-09-12T12:46:11;30.00;92.20
25582;DHT22;13462;50.764;4.332;2023-09-12T12:48:38;30.10;91.70
25582;DHT22;13462;50.764;4.332;2023-09-12T12:51:25;29.60;91.90
25582;DHT22;13462;50.764;4.332;2023-09-12T12:53:52;28.30;93.00
25582;DHT22;13462;50.764;4.332;2023-09-12T12:56:23;28.40;95.00
25582;DHT22;13462;50.764;4.332;2023-09-12T12:58:50;28.40;95.60
25582;DHT22;13462;50.764;4.332;2023-09-12T13:01:16;28.40;95.20
25582;DHT22;13462;50.764;4.332;2023-09-12T13:03:42;28.80;96.60
25582;DHT22;13462;50.764;4.332;2023-09-12T13:06:08;28.60;95.00
25582;DHT22;13462;50.764;4.332;2023-09-12T13:08:41;28.50;96.30
25582;DHT22;13462;50.764;4.332;2023-09-12T13:11:12;28.20;95.80
25582;DHT22;13462;50.764;4.332;2023-09-12T13:13:38;27.90;97.40
25582;DHT22;13462;50.764;4.332;2023-09-12T13:16:05;27.70;98.30
25582;DHT22;13462;50.764;4.332;2023-09-12T13:18:32;27.60;97.10
25582;DHT22;13462;50.764;4.332;2023-09-12T13:20:58;27.40;99.90
25582;DHT22;13462;50.764;4.332;2023-09-12T13:23:24;27.70;99.90
25582;DHT22;13462;50.764;4.332;2023-09-12T13:25:50;27.60;99.80
25582;DHT22;13462;50.764;4.332;2023-09-12T13:28:16;27.70;99.90
25582;DHT22;13462;50.764;4.332;2023-09-12T13:30:42;27.80;98.50
25582;DHT22;13462;50.764;4.332;2023-09-12T13:33:08;27.90;99.30
25582;DHT22;13462;50.764;4.332;2023-09-12T13:35:33;27.60;99.80
25582;DHT22;13462;50.764;4.332;2023-09-12T13:37:59;27.30;99.90
25582;DHT22;13462;50.764;4.332;2023-09-12T13:40:24;26.90;99.90
25582;DHT22;13462;50.764;4.332;2023-09-12T13:42:50;27.00;99.90
25582;DHT22;13462;50.764;4.332;2023-09-12T13:45:16;27.40;99.90
25582;DHT22;13462;50.764;4.332;2023-09-12T13:47:41;27.40;99.90
25582;DHT22;13462;50.764;4.332;2023-09-12T13:50:08;27.40;99.90
25582;DHT22;13462;50.764;4.332;2023-09-12T13:52:34;27.40;99.90
25582;DHT22;13462;50.764;4.332;2023-09-12T13:55:00;27.40;99.90
25582;DHT22;13462;50.764;4.332;2023-09-12T13:57:28;27.10;99.90
25582;DHT22;13462;50.764;4.332;2023-09-12T13:59:54;26.70;99.90
25582;DHT22;13462;50.764;4.332;2023-09-12T14:02:20;26.50;99.90
25582;DHT22;13462;50.764;4.332;2023-09-12T14:04:45;26.30;99.90
25582;DHT22;13462;50.764;4.332;2023-09-12T14:07:11;26.20;99.90
25582;DHT22;13462;50.764;4.332;2023-09-12T14:09:37;26.20;99.90
25582;DHT22;13462;50.764;4.332;2023-09-12T14:12:02;26.20;99.90
25582;DHT22;13462;50.764;4.332;2023-09-12T14:14:28;26.00;99.90
25582;DHT22;13462;50.764;4.332;2023-09-12T14:16:54;26.20;99.90
25582;DHT22;13462;50.764;4.332;2023-09-12T14:19:19;25.90;99.90
25582;DHT22;13462;50.764;4.332;2023-09-12T14:21:45;25.60;99.90
25582;DHT22;13462;50.764;4.332;2023-09-12T14:24:11;25.50;99.90
25582;DHT22;13462;50.764;4.332;2023-09-12T14:26:36;25.70;99.90
25582;DHT22;13462;50.764;4.332;2023-09-12T14:29:02;25.60;99.90
25582;DHT22;13462;50.764;4.332;2023-09-12T14:31:27;25.50;99.90
25582;DHT22;13462;50.764;4.332;2023-09-12T14:33:53;25.50;99.90
25582;DHT22;13462;50.764;4.332;2023-09-12T14:36:19;25.70;99.90
25582;DHT22;13462;50.764;4.332;2023-09-12T14:38:45;25.80;99.90
25582;DHT22;13462;50.764;4.332;2023-09-12T14:41:13;25.90;99.90
25582;DHT22;13462;50.764;4.332;2023-09-12T14:43:38;25.90;99.90
25582;DHT22;13462;50.764;4.332;2023-09-12T14:46:04;25.80;99.90
25582;DHT22;13462;50.764;4.332;2023-09-12T14:48:31;26.00;99.90
25582;DHT22;13462;50.764;4.332;2023-09-12T14:50:59;26.10;99.90
25582;DHT22;13462;50.764;4.332;2023-09-12T14:53:26;26.10;99.90
25582;DHT22;13462;50.764;4.332;2023-09-12T14:55:53;25.80;99.90
25582;DHT22;13462;50.764;4.332;2023-09-12T14:58:18;25.60;99.90
25582;DHT22;13462;50.764;4.332;2023-09-12T15:00:44;25.60;99.90
25582;DHT22;13462;50.764;4.332;2023-09-12T15:03:10;25.50;99.90
25582;DHT22;13462;50.764;4.332;2023-09-12T15:05:35;25.40;99.90
25582;DHT22;13462;50.764;4.332;2023-09-12T15:08:01;25.40;99.90
25582;DHT22;13462;50.764;4.332;2023-09-12T15:10:27;25.40;99.90
25582;DHT22;13462;50.764;4.332;2023-09-12T15:12:52;25.40;99.90
25582;DHT22;13462;50.764;4.332;2023-09-12T15:15:19;25.20;99.90
25582;DHT22;13462;50.764;4.332;2023-09-12T15:17:44;25.20;99.90
25582;DHT22;13462;50.764;4.332;2023-09-12T15:20:11;24.90;99.90
25582;DHT22;13462;50.764;4.332;2023-09-12T15:22:36;24.60;99.90
25582;DHT22;13462;50.764;4.332;2023-09-12T15:25:03;24.70;99.90
25582;DHT22;13462;50.764;4.332;2023-09-12T15:27:28;24.80;99.90
25582;DHT22;13462;50.764;4.332;2023-09-12T15:29:55;24.80;99.90
25582;DHT22;13462;50.764;4.332;2023-09-12T15:32:20;24.80;99.90
25582;DHT22;13462;50.764;4.332;2023-09-12T15:34:46;24.60;99.90
25582;DHT22;13462;50.764;4.332;2023-09-12T15:37:13;24.50;99.90
25582;DHT22;13462;50.764;4.332;2023-09-12T15:39:39;24.20;99.90
25582;DHT22;13462;50.764;4.332;2023-09-12T15:42:05;24.00;99.90